Time;durP1;ratioP1;P1;durP2;ratioP2;P2;SDS_P1;SDS_P2;PMS_P1;PMS_P2;Temp;Humidity;BMP_temperature;BMP_pressure;BME280_temperature;BME280_humidity;BME280_pressure;Samples;Min_cycle;Max_cycle;Signal;HPM_P1;HPM_P2
2023/10/09 00:02:08;;;;;;;15.27;14.27;;;21.50;99.90;;;;;;5061526;28;20455;-66
2023/10/09 00:04:36;;;;;;;14.80;13.70;;;21.50;99.90;;;;;;5063555;28;20483;-66
2023/10/09 00:07:07;;;;;;;16.13;14.83;;;21.50;99.90;;;;;;5065259;28;20515;-66
2023/10/09 00:09:46;;;;;;;15.40;14.50;;;21.50;99.90;;;;;;5062617;28;20824;-66
2023/10/09 00:12:16;;;;;;;14.63;13.53;;;21.50;99.90;;;;;;5061544;28;20436;-66
2023/10/09 00:14:47;;;;;;;15.83;14.73;;;21.50;99.90;;;;;;5052262;28;20965;-66
2023/10/09 00:17:18;;;;;;;14.00;13.00;;;21.50;99.90;;;;;;5065016;28;20950;-66
2023/10/09 00:19:47;;;;;;;15.67;14.77;;;21.50;99.90;;;;;;5053678;28;20436;-66
2023/10/09 00:22:25;;;;;;;16.13;15.03;;;21.40;99.90;;;;;;5061453;28;20440;-67
2023/10/09 00:25:10;;;;;;;13.23;12.47;;;21.40;99.90;;;;;;5054905;28;20498;-66
2023/10/09 00:27:41;;;;;;;16.57;15.47;;;21.40;99.90;;;;;;5060277;28;20452;-66
2023/10/09 00:30:15;;;;;;;16.10;14.93;;;21.40;99.90;;;;;;5064812;28;20462;-66
2023/10/09 00:32:45;;;;;;;16.07;14.93;;;21.40;99.90;;;;;;5061000;28;21051;-66
2023/10/09 00:38:00;;;;;;;14.13;13.13;;;21.40;99.90;;;;;;5053291;28;20432;-66
2023/10/09 00:40:34;;;;;;;13.70;12.83;;;21.40;99.90;;;;;;5062413;28;20435;-66
2023/10/09 00:43:06;;;;;;;13.67;12.87;;;21.40;99.90;;;;;;5063980;28;20797;-66
2023/10/09 00:45:39;;;;;;;13.97;12.90;;;21.40;99.90;;;;;;5062050;28;20463;-66
2023/10/09 00:48:08;;;;;;;15.73;14.60;;;21.30;99.90;;;;;;5060969;28;20486;-66
2023/10/09 00:50:38;;;;;;;14.10;13.00;;;21.30;99.90;;;;;;5063282;28;20851;-66
2023/10/09 00:53:12;;;;;;;14.80;13.77;;;21.40;99.90;;;;;;5063676;28;20478;-66
2023/10/09 00:55:44;;;;;;;15.03;14.00;;;21.40;99.90;;;;;;5061222;28;20551;-67
2023/10/09 00:58:13;;;;;;;14.70;13.73;;;21.40;99.90;;;;;;5060781;28;20892;-67
2023/10/09 01:00:52;;;;;;;15.37;14.27;;;21.40;99.90;;;;;;5063689;28;20825;-67
2023/10/09 01:03:22;;;;;;;15.60;14.53;;;21.30;99.90;;;;;;5063386;28;20457;-67
2023/10/09 01:05:57;;;;;;;15.83;14.53;;;21.30;99.90;;;;;;5059870;28;20526;-67
2023/10/09 01:08:30;;;;;;;15.00;14.00;;;21.30;99.90;;;;;;5061452;28;20448;-67
2023/10/09 01:11:08;;;;;;;14.83;13.67;;;21.30;99.90;;;;;;5064186;28;20435;-66
2023/10/09 01:13:52;;;;;;;14.07;13.00;;;21.30;99.90;;;;;;5054552;28;20559;-66
2023/10/09 01:16:22;;;;;;;14.90;13.80;;;21.30;99.90;;;;;;5063827;28;20462;-67
2023/10/09 01:18:50;;;;;;;14.50;13.43;;;21.30;99.90;;;;;;5063763;28;20454;-66
2023/10/09 01:21:18;;;;;;;15.00;13.80;;;21.30;99.90;;;;;;5063712;28;20995;-66
2023/10/09 01:24:03;;;;;;;14.50;13.50;;;21.30;99.90;;;;;;5048116;28;20517;-66
2023/10/09 01:26:32;;;;;;;14.00;13.00;;;21.30;99.90;;;;;;5055011;28;20479;-66
2023/10/09 01:29:00;;;;;;;15.33;14.23;;;21.30;99.90;;;;;;5060311;28;20891;-66
2023/10/09 01:31:33;;;;;;;13.30;12.40;;;21.30;99.90;;;;;;5061283;28;20447;-66
2023/10/09 01:34:03;;;;;;;14.33;13.30;;;21.30;99.90;;;;;;5062758;28;20569;-66
2023/10/09 01:36:32;;;;;;;14.33;13.43;;;21.30;99.90;;;;;;5061876;28;20520;-66
2023/10/09 01:39:08;;;;;;;14.77;13.60;;;21.30;99.90;;;;;;5060041;28;20506;-66
2023/10/09 01:41:35;;;;;;;13.60;12.77;;;21.30;99.90;;;;;;5062129;28;20813;-66
2023/10/09 01:44:10;;;;;;;15.43;14.30;;;21.30;99.90;;;;;;5060265;28;20483;-66
2023/10/09 01:46:37;;;;;;;13.83;12.90;;;21.30;99.90;;;;;;5110494;22;20490;-71
2023/10/09 01:49:10;;;;;;;13.90;13.00;;;21.30;99.90;;;;;;5069594;28;20451;-70
2023/10/09 01:51:38;;;;;;;13.87;13.00;;;21.30;99.90;;;;;;5071697;28;20443;-69
2023/10/09 01:54:06;;;;;;;13.97;13.00;;;21.30;99.90;;;;;;5066539;28;20873;-71
2023/10/09 01:56:36;;;;;;;13.07;12.37;;;21.30;99.90;;;;;;5063277;28;20519;-70
2023/10/09 01:59:05;;;;;;;14.83;13.80;;;21.30;99.90;;;;;;5062555;28;20524;-70
2023/10/09 02:01:34;;;;;;;13.57;12.60;;;21.30;99.90;;;;;;5056587;28;20458;-70
2023/10/09 02:04:07;;;;;;;13.57;12.67;;;21.30;99.90;;;;;;5059621;28;20493;-71
2023/10/09 02:06:37;;;;;;;16.23;15.20;;;21.30;99.90;;;;;;5061424;28;20495;-70
2023/10/09 02:09:06;;;;;;;16.67;15.47;;;21.30;99.90;;;;;;5056798;28;20448;-71
2023/10/09 02:11:41;;;;;;;14.03;13.03;;;21.30;99.90;;;;;;5061478;28;20437;-71
2023/10/09 02:14:19;;;;;;;13.57;12.60;;;21.30;99.90;;;;;;5062820;28;20485;-70
2023/10/09 02:17:02;;;;;;;16.03;14.50;;;21.30;99.90;;;;;;5059485;28;20460;-71
2023/10/09 02:19:34;;;;;;;13.97;13.07;;;21.20;99.90;;;;;;5062594;28;21011;-71
2023/10/09 02:22:05;;;;;;;13.93;13.03;;;21.20;99.90;;;;;;5059557;28;20518;-71
2023/10/09 02:24:57;;;;;;;13.87;13.07;;;21.30;99.90;;;;;;5062602;28;20494;-71
2023/10/09 02:30:17;;;;;;;13.60;12.43;;;21.20;99.90;;;;;;5068214;28;20529;-71
2023/10/09 02:32:44;;;;;;;15.70;14.70;;;21.20;99.90;;;;;;5063712;28;20451;-71
2023/10/09 02:35:35;;;;;;;13.53;12.63;;;21.20;99.90;;;;;;5063415;28;20491;-71
2023/10/09 02:38:06;;;;;;;14.90;14.00;;;21.20;99.90;;;;;;5056654;28;20448;-69
2023/10/09 02:41:04;;;;;;;15.60;14.10;;;21.20;99.90;;;;;;5055572;28;20451;-71
2023/10/09 02:43:25;;;;;;;14.20;13.20;;;21.20;99.90;;;;;;5062328;28;20441;-71
2023/10/09 02:45:52;;;;;;;14.67;13.73;;;21.20;99.90;;;;;;5055563;28;20483;-71
2023/10/09 02:48:20;;;;;;;13.33;12.63;;;21.20;99.90;;;;;;5062949;28;20471;-71
2023/10/09 02:50:50;;;;;;;13.67;12.83;;;21.20;99.90;;;;;;5066559;28;20447;-71
2023/10/09 02:53:19;;;;;;;14.43;13.43;;;21.20;99.90;;;;;;5066230;28;20451;-70
2023/10/09 02:56:11;;;;;;;14.03;13.23;;;21.20;99.90;;;;;;5063145;28;20517;-71
2023/10/09 02:58:40;;;;;;;12.30;11.60;;;21.20;99.90;;;;;;5063198;28;20454;-71
2023/10/09 03:01:13;;;;;;;14.27;13.30;;;21.20;99.90;;;;;;5063129;28;20458;-71
2023/10/09 03:03:41;;;;;;;14.83;13.83;;;21.20;99.90;;;;;;5064935;28;20989;-71
2023/10/09 03:06:11;;;;;;;13.60;12.70;;;21.20;99.90;;;;;;5066406;28;20508;-70
2023/10/09 03:08:38;;;;;;;13.90;13.00;;;21.20;99.90;;;;;;5063925;28;20443;-70
2023/10/09 03:11:13;;;;;;;13.90;13.00;;;21.20;99.90;;;;;;5063152;28;20483;-71
2023/10/09 03:13:44;;;;;;;18.07;16.70;;;21.20;99.90;;;;;;5065076;28;20475;-70
2023/10/09 03:16:19;;;;;;;14.20;13.10;;;21.20;99.90;;;;;;5066600;28;20550;-70
2023/10/09 03:18:47;;;;;;;14.80;13.90;;;21.20;99.90;;;;;;5062771;28;20983;-71
2023/10/09 03:21:14;;;;;;;13.17;12.37;;;21.20;99.90;;;;;;5063010;28;20447;-71
2023/10/09 03:23:43;;;;;;;12.60;12.00;;;21.20;99.90;;;;;;5064868;28;20452;-71
2023/10/09 03:26:12;;;;;;;14.17;13.27;;;21.20;99.90;;;;;;5066183;28;20534;-71
2023/10/09 03:28:38;;;;;;;13.47;12.63;;;21.20;99.90;;;;;;5063359;28;20486;-70
2023/10/09 03:31:06;;;;;;;14.33;13.27;;;21.10;99.90;;;;;;5062429;28;20476;-70
2023/10/09 03:33:33;;;;;;;15.03;14.07;;;21.20;99.90;;;;;;5063704;28;20817;-71
2023/10/09 03:36:01;;;;;;;13.00;12.30;;;21.10;99.90;;;;;;5065211;28;20465;-71
2023/10/09 03:38:34;;;;;;;13.93;12.87;;;21.10;99.90;;;;;;5058107;28;20451;-70
2023/10/09 03:41:05;;;;;;;14.17;13.27;;;21.10;99.90;;;;;;5062468;28;20444;-71
2023/10/09 03:43:37;;;;;;;14.13;13.33;;;21.10;99.90;;;;;;5063427;28;20454;-70
2023/10/09 03:46:05;;;;;;;13.60;12.90;;;21.10;99.90;;;;;;5065543;28;20467;-70
2023/10/09 03:48:35;;;;;;;14.33;13.17;;;21.10;99.90;;;;;;5064108;28;20454;-71
2023/10/09 03:51:09;;;;;;;13.27;12.37;;;21.10;99.90;;;;;;5062276;28;20787;-70
2023/10/09 03:53:38;;;;;;;13.73;12.57;;;21.10;99.90;;;;;;5063314;28;20448;-69
2023/10/09 03:56:11;;;;;;;14.10;13.20;;;21.10;99.90;;;;;;5065060;28;20514;-71
2023/10/09 03:58:42;;;;;;;14.63;13.57;;;21.10;99.90;;;;;;5063731;28;20530;-71
2023/10/09 04:01:22;;;;;;;13.73;12.93;;;21.10;99.90;;;;;;5062067;28;20845;-70
2023/10/09 04:03:49;;;;;;;14.00;13.00;;;21.10;99.90;;;;;;5064324;28;20454;-71
2023/10/09 04:06:17;;;;;;;14.37;13.57;;;21.10;99.90;;;;;;5065516;28;20487;-69
2023/10/09 04:08:48;;;;;;;14.50;13.50;;;21.10;99.90;;;;;;5062939;28;20448;-70
2023/10/09 04:11:22;;;;;;;13.40;12.60;;;21.10;99.90;;;;;;5061865;28;20540;-70
2023/10/09 04:13:52;;;;;;;15.37;14.57;;;21.10;99.90;;;;;;5056808;28;20476;-70
2023/10/09 04:16:35;;;;;;;15.50;14.60;;;21.10;99.90;;;;;;5061682;28;21008;-71
2023/10/09 04:19:11;;;;;;;14.67;13.77;;;21.10;99.90;;;;;;5065197;28;20450;-70
2023/10/09 04:21:37;;;;;;;14.73;14.03;;;21.10;99.90;;;;;;5063183;28;20443;-70
2023/10/09 04:24:24;;;;;;;14.60;13.77;;;21.10;99.90;;;;;;5061380;28;20523;-70
2023/10/09 04:26:56;;;;;;;13.00;12.47;;;21.10;99.90;;;;;;5064729;28;20491;-70
2023/10/09 04:29:27;;;;;;;14.90;14.10;;;21.10;99.90;;;;;;5064903;28;20454;-70
2023/10/09 04:31:55;;;;;;;14.13;13.43;;;21.10;99.90;;;;;;5052382;28;20512;-70
2023/10/09 04:34:28;;;;;;;14.20;13.40;;;21.10;99.90;;;;;;5057170;28;20479;-71
2023/10/09 04:36:56;;;;;;;14.13;13.30;;;21.10;99.90;;;;;;5053537;28;20526;-71
2023/10/09 04:39:46;;;;;;;14.63;13.70;;;21.10;99.90;;;;;;5061253;28;20502;-70
2023/10/09 04:42:20;;;;;;;14.00;13.30;;;21.10;99.90;;;;;;5056899;28;20863;-71
2023/10/09 04:45:51;;;;;;;15.97;15.00;;;21.10;99.90;;;;;;5061454;28;20515;-69
2023/10/09 04:47:49;;;;;;;14.07;13.30;;;21.10;99.90;;;;;;5062386;28;20825;-71
2023/10/09 04:53:22;;;;;;;15.43;14.33;;;21.00;99.90;;;;;;5045217;28;20798;-71
2023/10/09 04:55:53;;;;;;;16.90;16.10;;;21.00;99.90;;;;;;5046672;28;20479;-71
2023/10/09 04:58:25;;;;;;;17.10;15.83;;;21.00;99.90;;;;;;5064253;28;20447;-70
2023/10/09 05:01:12;;;;;;;15.50;14.70;;;21.10;99.90;;;;;;5059837;28;20494;-70
2023/10/09 05:03:44;;;;;;;13.50;12.90;;;21.10;99.90;;;;;;5060301;28;20450;-70
2023/10/09 05:08:54;;;;;;;16.60;15.80;;;21.00;99.90;;;;;;5043639;28;20432;-71
2023/10/09 05:11:34;;;;;;;14.93;14.17;;;21.10;99.90;;;;;;5056583;28;20477;-69
2023/10/09 05:14:14;;;;;;;15.00;14.20;;;21.10;99.90;;;;;;5053740;28;20479;-71
2023/10/09 05:16:54;;;;;;;14.70;13.80;;;21.10;99.90;;;;;;5062030;28;20981;-70
2023/10/09 05:19:33;;;;;;;14.97;14.17;;;21.10;99.90;;;;;;5063842;28;20522;-70
2023/10/09 05:22:04;;;;;;;13.27;12.67;;;21.00;99.90;;;;;;5050611;28;20534;-70
2023/10/09 05:24:43;;;;;;;14.07;13.27;;;21.00;99.90;;;;;;5063224;28;20530;-70
2023/10/09 05:27:18;;;;;;;13.70;13.00;;;21.10;99.90;;;;;;5060286;28;20448;-70
2023/10/09 05:29:59;;;;;;;14.47;13.67;;;21.00;99.90;;;;;;5062354;28;20497;-70
2023/10/09 05:32:35;;;;;;;15.10;14.20;;;21.00;99.90;;;;;;5063096;28;20468;-70
2023/10/09 05:35:15;;;;;;;13.43;12.87;;;21.10;99.90;;;;;;5052863;28;20982;-69
2023/10/09 05:37:45;;;;;;;15.00;14.20;;;21.00;99.90;;;;;;5061719;28;20998;-69
2023/10/09 05:40:23;;;;;;;15.17;14.17;;;21.00;99.90;;;;;;5063861;28;20491;-70
2023/10/09 05:42:59;;;;;;;15.30;14.20;;;21.10;99.90;;;;;;5060555;28;20459;-72
2023/10/09 05:51:12;;;;;;;13.83;13.03;;;21.10;99.90;;;;;;5009855;28;20430;-69
2023/10/09 06:04:49;;;;;;;14.80;13.73;;;21.00;99.90;;;;;;5062947;28;20435;-68
2023/10/09 06:07:23;;;;;;;17.00;15.80;;;21.00;99.90;;;;;;5054221;28;20441;-68
2023/10/09 06:09:52;;;;;;;15.77;14.87;;;21.00;99.90;;;;;;5062355;28;20854;-69
2023/10/09 06:15:18;;;;;;;15.07;14.07;;;21.00;99.90;;;;;;5050486;28;20579;-67
2023/10/09 06:17:50;;;;;;;14.93;13.93;;;21.00;99.90;;;;;;5061370;28;20478;-68
2023/10/09 06:23:15;;;;;;;14.07;13.30;;;21.00;99.90;;;;;;5052162;28;20439;-68
2023/10/09 06:25:50;;;;;;;15.50;14.60;;;21.00;99.90;;;;;;5060723;28;20456;-68
2023/10/09 06:28:32;;;;;;;14.80;13.83;;;21.00;99.90;;;;;;5062799;28;20445;-69
2023/10/09 06:31:27;;;;;;;15.80;14.40;;;21.00;99.90;;;;;;5059230;28;20564;-68
2023/10/09 06:34:07;;;;;;;13.60;12.90;;;21.00;99.90;;;;;;5060848;28;20458;-69
2023/10/09 06:36:41;;;;;;;12.80;12.17;;;21.00;99.90;;;;;;5062274;28;20890;-69
2023/10/09 06:42:08;;;;;;;14.00;13.10;;;21.00;99.90;;;;;;5060740;28;20492;-68
2023/10/09 06:47:17;;;;;;;13.70;12.90;;;21.00;99.90;;;;;;5058604;28;20428;-68
2023/10/09 06:50:12;;;;;;;13.87;13.20;;;21.00;99.90;;;;;;5060734;28;20962;-68
2023/10/09 06:55:32;;;;;;;14.63;13.70;;;21.00;99.90;;;;;;5052022;28;20476;-69
2023/10/09 06:58:01;;;;;;;13.87;12.87;;;21.00;99.90;;;;;;5062543;28;20451;-70
2023/10/09 07:03:12;;;;;;;14.50;13.60;;;21.00;99.90;;;;;;5052812;28;20502;-69
2023/10/09 07:06:00;;;;;;;14.63;13.63;;;21.00;99.90;;;;;;5059638;28;20484;-68
2023/10/09 07:08:36;;;;;;;13.73;13.03;;;21.00;99.90;;;;;;5062406;28;20532;-69
2023/10/09 07:11:21;;;;;;;14.13;13.13;;;21.00;99.90;;;;;;5052472;28;20478;-68
2023/10/09 07:13:54;;;;;;;14.60;13.70;;;21.00;99.90;;;;;;5064475;28;20510;-68
2023/10/09 07:16:28;;;;;;;14.63;13.73;;;21.00;99.90;;;;;;5065881;28;20483;-69
2023/10/09 07:19:09;;;;;;;14.30;13.57;;;21.00;99.90;;;;;;5062919;28;20443;-69
2023/10/09 07:21:35;;;;;;;14.53;13.70;;;21.00;99.90;;;;;;5062780;28;20440;-67
2023/10/09 07:24:14;;;;;;;13.93;13.20;;;21.00;99.90;;;;;;5065757;28;20442;-68
2023/10/09 07:26:47;;;;;;;14.13;13.33;;;21.00;99.90;;;;;;5064728;28;20455;-69
2023/10/09 07:29:21;;;;;;;14.27;13.40;;;21.00;99.90;;;;;;5062590;28;20450;-69
2023/10/09 07:31:57;;;;;;;13.80;13.20;;;21.00;99.90;;;;;;5064202;28;20451;-69
2023/10/09 07:34:52;;;;;;;13.30;12.70;;;21.00;99.90;;;;;;5065560;28;20512;-69
2023/10/09 07:37:22;;;;;;;13.93;13.33;;;21.00;99.90;;;;;;5056792;28;20845;-68
2023/10/09 07:39:57;;;;;;;15.17;14.23;;;21.00;99.90;;;;;;5064437;28;20510;-69
2023/10/09 07:45:53;;;;;;;15.93;15.23;;;21.00;99.90;;;;;;5076445;22;20447;-65
2023/10/09 07:48:04;;;;;;;14.77;13.63;;;21.00;99.90;;;;;;5053595;28;20966;-66
2023/10/09 07:50:48;;;;;;;14.90;14.10;;;21.00;99.90;;;;;;5053933;28;20814;-65
2023/10/09 07:53:25;;;;;;;14.90;14.07;;;21.00;99.90;;;;;;5047402;28;20510;-65
2023/10/09 07:55:58;;;;;;;14.00;13.10;;;21.00;99.90;;;;;;5050998;28;20974;-65
2023/10/09 07:58:26;;;;;;;14.33;13.43;;;21.00;99.90;;;;;;5042118;28;20448;-65
2023/10/09 08:03:35;;;;;;;13.33;12.57;;;21.00;99.90;;;;;;5042366;28;20471;-65
2023/10/09 08:06:29;;;;;;;14.00;13.40;;;21.00;99.90;;;;;;5033761;28;20484;-66
2023/10/09 08:11:59;;;;;;;14.03;13.30;;;21.00;99.90;;;;;;5043687;28;20794;-65
2023/10/09 08:17:15;;;;;;;13.70;12.90;;;21.00;99.90;;;;;;5032317;28;20445;-65
2023/10/09 08:19:56;;;;;;;14.03;13.33;;;21.00;99.90;;;;;;5042394;28;20444;-65
2023/10/09 08:22:50;;;;;;;14.20;13.43;;;21.00;99.90;;;;;;5044550;28;20440;-67
2023/10/09 08:25:31;;;;;;;14.70;13.87;;;21.00;99.90;;;;;;5041374;28;20836;-66
2023/10/09 08:30:51;;;;;;;13.20;12.60;;;21.00;99.90;;;;;;5043566;28;20447;-67
2023/10/09 08:33:40;;;;;;;12.70;12.20;;;21.00;99.90;;;;;;5041092;28;20519;-67
2023/10/09 08:36:09;;;;;;;14.67;13.80;;;21.00;99.90;;;;;;5041211;28;20845;-67
2023/10/09 08:38:36;;;;;;;14.00;13.40;;;21.00;99.90;;;;;;5041323;28;20448;-67
2023/10/09 08:41:17;;;;;;;15.40;14.60;;;21.00;99.90;;;;;;5033047;28;20816;-67
2023/10/09 08:43:52;;;;;;;15.40;14.70;;;21.00;99.90;;;;;;5041868;28;20437;-66
2023/10/09 08:46:26;;;;;;;14.33;13.73;;;21.00;99.90;;;;;;5044387;28;20487;-66
2023/10/09 08:48:55;;;;;;;15.00;14.30;;;21.00;99.90;;;;;;5042129;28;21012;-66
2023/10/09 08:51:23;;;;;;;15.23;14.27;;;21.00;99.90;;;;;;5040941;28;20441;-67
2023/10/09 08:53:49;;;;;;;15.13;14.43;;;21.00;99.90;;;;;;5042384;28;20476;-66
2023/10/09 08:56:22;;;;;;;14.23;13.43;;;21.00;99.90;;;;;;5044107;28;20515;-67
2023/10/09 08:58:52;;;;;;;14.87;14.07;;;21.00;99.90;;;;;;5042601;28;20440;-67
2023/10/09 09:01:21;;;;;;;14.50;13.83;;;21.00;99.90;;;;;;5040845;28;20440;-67
2023/10/09 09:03:50;;;;;;;15.37;14.67;;;21.00;99.90;;;;;;5041731;28;20507;-66
2023/10/09 09:06:19;;;;;;;14.87;14.07;;;21.00;99.90;;;;;;5043973;28;20483;-65
2023/10/09 09:08:47;;;;;;;15.30;14.50;;;21.00;99.90;;;;;;5042811;28;20441;-65
2023/10/09 09:11:17;;;;;;;15.17;14.47;;;21.00;99.90;;;;;;5040624;28;20814;-65
2023/10/09 09:13:52;;;;;;;15.73;14.90;;;21.00;99.90;;;;;;5040953;28;20493;-66
2023/10/09 09:16:21;;;;;;;15.83;15.13;;;21.00;99.90;;;;;;5043845;28;20515;-65
2023/10/09 09:19:00;;;;;;;14.73;13.90;;;21.00;99.90;;;;;;5042353;28;20503;-65
2023/10/09 09:21:27;;;;;;;16.40;15.60;;;21.10;99.90;;;;;;5040362;28;20825;-66
2023/10/09 09:23:57;;;;;;;15.77;14.97;;;21.10;99.90;;;;;;5042460;28;20444;-65
2023/10/09 09:26:38;;;;;;;16.00;15.30;;;21.10;99.90;;;;;;5043855;28;20464;-65
2023/10/09 09:29:06;;;;;;;15.67;14.77;;;21.10;99.90;;;;;;5032094;28;20441;-65
2023/10/09 09:31:38;;;;;;;14.50;13.60;;;21.10;99.90;;;;;;5040203;28;20452;-65
2023/10/09 09:34:13;;;;;;;15.40;14.57;;;21.10;99.90;;;;;;5031498;28;20442;-65
2023/10/09 09:36:54;;;;;;;15.57;14.27;;;21.10;99.90;;;;;;5039984;28;20511;-65
2023/10/09 09:39:28;;;;;;;15.07;14.37;;;21.10;99.90;;;;;;5043440;28;20879;-65
2023/10/09 09:41:57;;;;;;;15.20;14.33;;;21.10;99.90;;;;;;5041259;28;20521;-65
2023/10/09 09:44:30;;;;;;;15.77;14.63;;;21.10;99.90;;;;;;5039672;28;20449;-65
2023/10/09 09:47:01;;;;;;;14.53;13.93;;;21.10;99.90;;;;;;5042255;28;20473;-65
2023/10/09 09:49:31;;;;;;;14.73;13.93;;;21.10;99.90;;;;;;5043254;28;20466;-65
2023/10/09 09:52:02;;;;;;;15.63;14.80;;;21.10;99.90;;;;;;5040599;28;20448;-65
2023/10/09 09:54:33;;;;;;;16.17;15.13;;;21.20;99.90;;;;;;5039597;28;20460;-65
2023/10/09 09:57:08;;;;;;;15.60;14.77;;;21.20;99.90;;;;;;5042274;28;20545;-66
2023/10/09 09:59:49;;;;;;;15.70;14.90;;;21.20;99.90;;;;;;5043094;28;20432;-65
2023/10/09 10:02:23;;;;;;;14.13;13.43;;;21.10;99.90;;;;;;5033106;28;20982;-65
2023/10/09 10:04:56;;;;;;;15.40;14.50;;;21.20;99.90;;;;;;5040881;28;20873;-65
2023/10/09 10:07:26;;;;;;;14.57;13.97;;;21.10;99.90;;;;;;5043006;28;20447;-65
2023/10/09 10:09:57;;;;;;;15.30;14.20;;;21.20;99.90;;;;;;5041006;28;20522;-66
2023/10/09 10:13:01;;;;;;;13.63;13.07;;;21.10;99.90;;;;;;5039511;28;20445;-66
2023/10/09 10:16:11;;;;;;;13.90;13.40;;;21.10;99.90;;;;;;5034264;28;20879;-65
2023/10/09 10:21:39;;;;;;;14.67;13.83;;;21.20;99.90;;;;;;5088993;28;20570;-66
2023/10/09 10:24:52;;;;;;;14.37;13.77;;;21.10;99.90;;;;;;5080376;28;20442;-66
2023/10/09 10:27:26;;;;;;;14.83;13.63;;;21.20;99.90;;;;;;5074015;28;20508;-66
2023/10/09 10:30:31;;;;;;;14.70;14.00;;;21.20;99.90;;;;;;5088829;28;20434;-66
2023/10/09 10:33:09;;;;;;;14.30;13.70;;;21.20;99.90;;;;;;5086119;28;20832;-67
2023/10/09 10:35:44;;;;;;;14.57;14.00;;;21.20;99.90;;;;;;5088724;28;20489;-67
2023/10/09 10:38:32;;;;;;;15.97;14.73;;;21.20;99.90;;;;;;5081091;28;20438;-67
2023/10/09 10:41:11;;;;;;;14.60;14.00;;;21.20;99.90;;;;;;5088390;28;20936;-67
2023/10/09 10:43:54;;;;;;;16.73;16.10;;;21.20;99.90;;;;;;5088353;28;20533;-67
2023/10/09 10:46:30;;;;;;;16.40;15.30;;;21.20;99.90;;;;;;5082165;28;20833;-67
2023/10/09 10:49:00;;;;;;;13.97;13.27;;;21.20;99.90;;;;;;5088443;28;20448;-67
2023/10/09 10:51:35;;;;;;;14.33;13.63;;;21.20;99.90;;;;;;5088318;28;20439;-68
2023/10/09 10:56:45;;;;;;;15.57;14.77;;;21.20;99.90;;;;;;5087925;28;20450;-67
2023/10/09 10:59:13;;;;;;;16.00;15.00;;;21.20;99.90;;;;;;5088253;28;21018;-67
2023/10/09 11:02:13;;;;;;;15.67;14.87;;;21.20;99.90;;;;;;5088146;28;20520;-67
2023/10/09 11:04:41;;;;;;;17.33;16.10;;;21.20;99.90;;;;;;5084251;28;20809;-67
2023/10/09 11:07:12;;;;;;;15.90;14.80;;;21.20;99.90;;;;;;5079709;28;21050;-67
2023/10/09 11:10:08;;;;;;;13.50;12.90;;;21.20;99.90;;;;;;5088101;28;20488;-66
2023/10/09 11:13:12;;;;;;;14.87;14.10;;;21.20;99.90;;;;;;5083336;28;20942;-67
2023/10/09 11:15:43;;;;;;;15.83;14.83;;;21.20;99.90;;;;;;5082753;28;21003;-67
2023/10/09 11:18:19;;;;;;;16.87;15.90;;;21.20;99.90;;;;;;5079853;28;20521;-67
2023/10/09 11:20:57;;;;;;;14.70;13.90;;;21.20;99.90;;;;;;5087485;28;20519;-67
2023/10/09 11:23:36;;;;;;;16.83;15.90;;;21.20;99.90;;;;;;5087562;28;20809;-67
2023/10/09 11:26:21;;;;;;;15.70;14.80;;;21.20;99.90;;;;;;5087611;28;20524;-67
2023/10/09 11:29:13;;;;;;;15.57;14.70;;;21.20;99.90;;;;;;5087578;28;20802;-67
2023/10/09 11:31:39;;;;;;;16.90;16.00;;;21.20;99.90;;;;;;5081064;28;20438;-67
2023/10/09 11:34:28;;;;;;;15.27;14.57;;;21.30;99.90;;;;;;5073849;28;20445;-68
2023/10/09 11:36:56;;;;;;;16.93;15.73;;;21.20;99.90;;;;;;5074021;28;20880;-68
2023/10/09 11:39:50;;;;;;;14.97;14.20;;;21.20;99.90;;;;;;5074006;28;20911;-67
2023/10/09 11:42:35;;;;;;;15.27;14.37;;;21.30;99.90;;;;;;5066699;28;20485;-66
2023/10/09 11:45:04;;;;;;;15.50;14.53;;;21.30;99.90;;;;;;5073528;28;20953;-67
2023/10/09 11:47:35;;;;;;;16.17;15.27;;;21.30;99.90;;;;;;5073851;28;20447;-67
2023/10/09 11:50:17;;;;;;;15.30;14.50;;;21.20;99.90;;;;;;5073654;28;20443;-67
2023/10/09 11:53:08;;;;;;;15.40;14.50;;;21.30;99.90;;;;;;5073738;28;20474;-68
2023/10/09 11:55:36;;;;;;;15.80;15.13;;;21.30;99.90;;;;;;5068965;28;20466;-67
2023/10/09 11:58:06;;;;;;;15.43;14.53;;;21.30;99.90;;;;;;5073625;28;20984;-67
2023/10/09 12:00:44;;;;;;;17.07;15.97;;;21.30;99.90;;;;;;5073539;28;20479;-67
2023/10/09 12:03:13;;;;;;;16.07;15.23;;;21.30;99.90;;;;;;5073483;28;20435;-67
2023/10/09 12:05:43;;;;;;;16.10;15.30;;;21.30;99.90;;;;;;5073424;28;20469;-67
2023/10/09 12:08:14;;;;;;;15.50;14.60;;;21.30;99.90;;;;;;5065192;28;20522;-67
2023/10/09 12:10:40;;;;;;;15.07;14.37;;;21.30;99.90;;;;;;5073430;28;20447;-67
2023/10/09 12:13:09;;;;;;;16.43;15.33;;;21.30;99.90;;;;;;5073056;28;20475;-67
2023/10/09 12:15:38;;;;;;;15.70;14.87;;;21.30;99.90;;;;;;5073207;28;20493;-67
2023/10/09 12:18:14;;;;;;;15.73;14.93;;;21.30;99.90;;;;;;5073090;28;20504;-67
2023/10/09 12:20:45;;;;;;;15.67;14.93;;;21.30;99.90;;;;;;5073059;28;20486;-67
2023/10/09 12:23:14;;;;;;;15.47;14.47;;;21.30;99.90;;;;;;5064900;28;20478;-67
2023/10/09 12:25:44;;;;;;;16.00;15.00;;;21.30;99.90;;;;;;5072989;28;20463;-66
2023/10/09 12:28:13;;;;;;;15.90;14.60;;;21.30;99.90;;;;;;5064800;28;20445;-67
2023/10/09 12:30:41;;;;;;;14.33;13.80;;;21.30;99.90;;;;;;5073047;28;20886;-67
2023/10/09 12:33:09;;;;;;;16.97;15.37;;;21.30;99.90;;;;;;5072692;28;20471;-67
2023/10/09 12:35:40;;;;;;;15.97;15.23;;;21.40;99.90;;;;;;5072795;28;20873;-66
2023/10/09 12:38:09;;;;;;;15.87;14.90;;;21.40;99.90;;;;;;5072826;28;20446;-66
2023/10/09 12:40:38;;;;;;;15.50;14.80;;;21.40;99.90;;;;;;5072770;28;20474;-66
2023/10/09 12:43:05;;;;;;;15.33;14.60;;;21.40;99.90;;;;;;5071587;28;20455;-66
2023/10/09 12:45:36;;;;;;;16.53;15.40;;;21.40;99.90;;;;;;5072465;28;20463;-66
2023/10/09 12:48:08;;;;;;;15.73;14.80;;;21.40;99.90;;;;;;5072663;28;20439;-66
2023/10/09 12:50:41;;;;;;;15.67;14.93;;;21.40;99.90;;;;;;5072660;28;20799;-68
2023/10/09 12:53:09;;;;;;;15.93;14.90;;;21.40;99.90;;;;;;5072248;28;20976;-67
2023/10/09 12:55:40;;;;;;;15.70;14.90;;;21.40;99.90;;;;;;5072305;28;20475;-67
2023/10/09 12:58:08;;;;;;;17.83;16.57;;;21.40;99.90;;;;;;5072335;28;20451;-68
2023/10/09 13:00:44;;;;;;;16.60;15.70;;;21.40;99.90;;;;;;5072335;28;20471;-67
2023/10/09 13:03:21;;;;;;;14.87;14.17;;;21.40;99.90;;;;;;5072070;28;20443;-67
2023/10/09 13:05:52;;;;;;;14.93;14.23;;;21.40;99.90;;;;;;5072204;28;20455;-68
2023/10/09 13:08:21;;;;;;;15.60;14.80;;;21.40;99.90;;;;;;5072160;28;20439;-68
2023/10/09 13:10:55;;;;;;;15.70;15.00;;;21.40;99.90;;;;;;5072015;28;20443;-67
2023/10/09 13:13:22;;;;;;;16.57;15.57;;;21.40;99.90;;;;;;5072023;28;20447;-67
2023/10/09 13:15:50;;;;;;;15.87;15.20;;;21.50;99.90;;;;;;5071918;28;20463;-67
2023/10/09 13:18:17;;;;;;;14.60;13.83;;;21.50;99.90;;;;;;5072299;28;20467;-67
2023/10/09 13:20:45;;;;;;;15.50;14.70;;;21.40;99.90;;;;;;5071973;28;20863;-67
2023/10/09 13:23:16;;;;;;;15.10;14.30;;;21.50;99.90;;;;;;5071697;28;20440;-67
2023/10/09 13:25:44;;;;;;;14.77;13.97;;;21.50;99.90;;;;;;5071960;28;20970;-66
2023/10/09 13:28:11;;;;;;;17.93;17.13;;;21.50;99.90;;;;;;5071883;28;20447;-66
2023/10/09 13:30:48;;;;;;;16.20;15.50;;;21.50;99.90;;;;;;5071810;28;20534;-67
2023/10/09 13:33:21;;;;;;;14.97;14.37;;;21.50;99.90;;;;;;5063724;28;20486;-66
2023/10/09 13:35:50;;;;;;;15.77;14.97;;;21.50;99.90;;;;;;5071799;28;20595;-66
2023/10/09 13:38:17;;;;;;;15.30;14.60;;;21.50;99.90;;;;;;5064055;28;20819;-66
2023/10/09 13:40:44;;;;;;;14.90;14.20;;;21.50;99.90;;;;;;5070326;28;21020;-66
2023/10/09 13:43:16;;;;;;;17.30;16.47;;;21.50;99.90;;;;;;5069031;28;20471;-66
2023/10/09 13:45:49;;;;;;;16.47;15.23;;;21.50;99.90;;;;;;5071662;28;20812;-66
2023/10/09 13:48:20;;;;;;;16.23;15.47;;;21.60;99.90;;;;;;5063862;28;20510;-67
2023/10/09 13:50:48;;;;;;;16.30;15.40;;;21.50;99.90;;;;;;5070764;28;20431;-65
2023/10/09 13:53:15;;;;;;;15.77;14.97;;;21.50;99.90;;;;;;5063404;28;20451;-67
2023/10/09 13:55:44;;;;;;;16.13;15.23;;;21.50;99.90;;;;;;5071350;28;20505;-67
2023/10/09 13:58:13;;;;;;;16.77;15.37;;;21.60;99.90;;;;;;5071785;28;20440;-68
2023/10/09 14:00:43;;;;;;;16.93;15.83;;;21.60;99.90;;;;;;5071798;28;20482;-67
2023/10/09 14:03:13;;;;;;;15.63;14.70;;;21.60;99.90;;;;;;5067188;28;20469;-65
2023/10/09 14:05:54;;;;;;;17.37;16.20;;;21.60;99.90;;;;;;5071654;28;20498;-69
2023/10/09 14:08:23;;;;;;;16.80;15.90;;;21.60;99.90;;;;;;5064023;28;20439;-68